sensor_id;sensor_type;location;lat;lon;timestamp;P1;durP1;ratioP1;P2;durP2;ratioP2
18789;SDS011;9523;42.650;23.386;2022-10-26T00:00:33;7.80;;;4.03;;
18789;SDS011;9523;42.650;23.386;2022-10-26T00:03:00;9.97;;;3.73;;
18789;SDS011;9523;42.650;23.386;2022-10-26T00:05:26;7.77;;;3.63;;
18789;SDS011;9523;42.650;23.386;2022-10-26T00:07:53;8.90;;;4.10;;
18789;SDS011;9523;42.650;23.386;2022-10-26T00:10:20;8.80;;;3.37;;
18789;SDS011;9523;42.650;23.386;2022-10-26T00:12:47;7.20;;;3.40;;
18789;SDS011;9523;42.650;23.386;2022-10-26T00:15:17;9.03;;;3.90;;
18789;SDS011;9523;42.650;23.386;2022-10-26T00:17:44;9.60;;;3.97;;
18789;SDS011;9523;42.650;23.386;2022-10-26T00:20:12;8.97;;;4.20;;
18789;SDS011;9523;42.650;23.386;2022-10-26T00:22:40;7.13;;;3.73;;
18789;SDS011;9523;42.650;23.386;2022-10-26T00:25:07;6.57;;;3.90;;
18789;SDS011;9523;42.650;23.386;2022-10-26T00:27:34;7.27;;;4.10;;
18789;SDS011;9523;42.650;23.386;2022-10-26T00:30:04;9.73;;;3.80;;
18789;SDS011;9523;42.650;23.386;2022-10-26T00:32:33;6.50;;;3.67;;
18789;SDS011;9523;42.650;23.386;2022-10-26T00:35:00;9.90;;;3.87;;
18789;SDS011;9523;42.650;23.386;2022-10-26T00:37:27;6.37;;;3.17;;
18789;SDS011;9523;42.650;23.386;2022-10-26T00:39:54;7.43;;;3.50;;
18789;SDS011;9523;42.650;23.386;2022-10-26T00:42:21;7.33;;;3.60;;
18789;SDS011;9523;42.650;23.386;2022-10-26T00:44:56;6.90;;;3.13;;
18789;SDS011;9523;42.650;23.386;2022-10-26T00:47:33;6.23;;;4.13;;
18789;SDS011;9523;42.650;23.386;2022-10-26T00:50:08;4.63;;;3.70;;
18789;SDS011;9523;42.650;23.386;2022-10-26T00:52:37;5.90;;;3.63;;
18789;SDS011;9523;42.650;23.386;2022-10-26T00:55:06;10.33;;;3.40;;
18789;SDS011;9523;42.650;23.386;2022-10-26T00:57:37;5.57;;;3.37;;
18789;SDS011;9523;42.650;23.386;2022-10-26T01:00:05;8.37;;;3.40;;
18789;SDS011;9523;42.650;23.386;2022-10-26T01:02:33;6.23;;;3.10;;
18789;SDS011;9523;42.650;23.386;2022-10-26T01:05:03;8.00;;;3.50;;
18789;SDS011;9523;42.650;23.386;2022-10-26T01:07:31;5.30;;;3.23;;
18789;SDS011;9523;42.650;23.386;2022-10-26T01:09:59;6.40;;;3.13;;
18789;SDS011;9523;42.650;23.386;2022-10-26T01:12:29;5.53;;;3.13;;
18789;SDS011;9523;42.650;23.386;2022-10-26T01:14:56;5.17;;;3.23;;
18789;SDS011;9523;42.650;23.386;2022-10-26T01:17:35;5.87;;;3.73;;
18789;SDS011;9523;42.650;23.386;2022-10-26T01:20:28;10.60;;;3.80;;
18789;SDS011;9523;42.650;23.386;2022-10-26T01:23:25;4.90;;;3.30;;
18789;SDS011;9523;42.650;23.386;2022-10-26T01:29:06;9.90;;;3.90;;
18789;SDS011;9523;42.650;23.386;2022-10-26T01:31:49;7.30;;;3.37;;
18789;SDS011;9523;42.650;23.386;2022-10-26T01:34:27;9.10;;;3.93;;
18789;SDS011;9523;42.650;23.386;2022-10-26T01:37:01;7.13;;;3.10;;
18789;SDS011;9523;42.650;23.386;2022-10-26T01:39:36;6.40;;;3.80;;
18789;SDS011;9523;42.650;23.386;2022-10-26T01:42:07;8.07;;;3.60;;
18789;SDS011;9523;42.650;23.386;2022-10-26T01:44:36;6.53;;;3.57;;
18789;SDS011;9523;42.650;23.386;2022-10-26T01:47:08;6.83;;;3.10;;
18789;SDS011;9523;42.650;23.386;2022-10-26T01:49:39;6.70;;;3.67;;
18789;SDS011;9523;42.650;23.386;2022-10-26T01:52:11;6.20;;;3.73;;
18789;SDS011;9523;42.650;23.386;2022-10-26T01:54:37;6.33;;;3.50;;
18789;SDS011;9523;42.650;23.386;2022-10-26T01:57:08;7.97;;;4.13;;
18789;SDS011;9523;42.650;23.386;2022-10-26T01:59:41;13.23;;;4.20;;
18789;SDS011;9523;42.650;23.386;2022-10-26T02:02:29;10.07;;;3.60;;
18789;SDS011;9523;42.650;23.386;2022-10-26T02:05:23;11.60;;;4.47;;
18789;SDS011;9523;42.650;23.386;2022-10-26T02:08:03;7.63;;;3.93;;
18789;SDS011;9523;42.650;23.386;2022-10-26T02:10:42;8.30;;;3.27;;
18789;SDS011;9523;42.650;23.386;2022-10-26T02:13:18;9.57;;;3.77;;
18789;SDS011;9523;42.650;23.386;2022-10-26T02:15:53;8.57;;;3.47;;
18789;SDS011;9523;42.650;23.386;2022-10-26T02:18:30;4.70;;;3.30;;
18789;SDS011;9523;42.650;23.386;2022-10-26T02:21:08;7.50;;;3.60;;
18789;SDS011;9523;42.650;23.386;2022-10-26T02:23:38;9.63;;;3.87;;
18789;SDS011;9523;42.650;23.386;2022-10-26T02:26:09;12.17;;;4.67;;
18789;SDS011;9523;42.650;23.386;2022-10-26T02:28:40;8.47;;;4.10;;
18789;SDS011;9523;42.650;23.386;2022-10-26T02:31:10;10.83;;;4.57;;
18789;SDS011;9523;42.650;23.386;2022-10-26T02:33:43;9.67;;;5.10;;
18789;SDS011;9523;42.650;23.386;2022-10-26T02:36:14;12.83;;;5.20;;
18789;SDS011;9523;42.650;23.386;2022-10-26T02:38:44;10.27;;;5.63;;
18789;SDS011;9523;42.650;23.386;2022-10-26T02:41:15;14.30;;;6.63;;
18789;SDS011;9523;42.650;23.386;2022-10-26T02:43:44;16.13;;;7.37;;
18789;SDS011;9523;42.650;23.386;2022-10-26T02:46:16;15.23;;;7.10;;
18789;SDS011;9523;42.650;23.386;2022-10-26T02:48:48;16.57;;;7.10;;
18789;SDS011;9523;42.650;23.386;2022-10-26T02:51:16;12.27;;;7.33;;
18789;SDS011;9523;42.650;23.386;2022-10-26T02:53:48;13.60;;;6.60;;
18789;SDS011;9523;42.650;23.386;2022-10-26T02:56:21;12.00;;;6.60;;
18789;SDS011;9523;42.650;23.386;2022-10-26T02:58:54;18.30;;;7.03;;
18789;SDS011;9523;42.650;23.386;2022-10-26T03:01:24;15.80;;;6.37;;
18789;SDS011;9523;42.650;23.386;2022-10-26T03:03:57;13.50;;;6.00;;
18789;SDS011;9523;42.650;23.386;2022-10-26T03:06:25;16.87;;;6.40;;
18789;SDS011;9523;42.650;23.386;2022-10-26T03:08:52;14.90;;;6.97;;
18789;SDS011;9523;42.650;23.386;2022-10-26T03:11:19;10.20;;;6.07;;
18789;SDS011;9523;42.650;23.386;2022-10-26T03:13:46;17.33;;;6.63;;
18789;SDS011;9523;42.650;23.386;2022-10-26T03:16:12;18.63;;;7.30;;
18789;SDS011;9523;42.650;23.386;2022-10-26T03:18:39;12.13;;;6.33;;
18789;SDS011;9523;42.650;23.386;2022-10-26T03:21:08;10.30;;;7.00;;
18789;SDS011;9523;42.650;23.386;2022-10-26T03:23:35;13.93;;;7.73;;
18789;SDS011;9523;42.650;23.386;2022-10-26T03:26:01;14.77;;;7.37;;
18789;SDS011;9523;42.650;23.386;2022-10-26T03:28:28;11.90;;;7.40;;
18789;SDS011;9523;42.650;23.386;2022-10-26T03:30:55;10.80;;;6.97;;
18789;SDS011;9523;42.650;23.386;2022-10-26T03:33:23;12.53;;;7.90;;
18789;SDS011;9523;42.650;23.386;2022-10-26T03:35:53;13.70;;;6.83;;
18789;SDS011;9523;42.650;23.386;2022-10-26T03:38:22;15.47;;;7.10;;
18789;SDS011;9523;42.650;23.386;2022-10-26T03:40:49;17.73;;;8.50;;
18789;SDS011;9523;42.650;23.386;2022-10-26T03:43:16;11.83;;;6.53;;
18789;SDS011;9523;42.650;23.386;2022-10-26T03:45:43;9.73;;;5.90;;
18789;SDS011;9523;42.650;23.386;2022-10-26T03:48:13;12.30;;;6.60;;
18789;SDS011;9523;42.650;23.386;2022-10-26T03:50:40;13.67;;;6.90;;
18789;SDS011;9523;42.650;23.386;2022-10-26T03:53:07;14.47;;;7.07;;
18789;SDS011;9523;42.650;23.386;2022-10-26T03:55:35;12.60;;;7.00;;
18789;SDS011;9523;42.650;23.386;2022-10-26T03:58:02;12.77;;;7.03;;
18789;SDS011;9523;42.650;23.386;2022-10-26T04:00:29;14.90;;;7.20;;
18789;SDS011;9523;42.650;23.386;2022-10-26T04:02:57;11.23;;;6.73;;
18789;SDS011;9523;42.650;23.386;2022-10-26T04:05:25;11.90;;;6.87;;
18789;SDS011;9523;42.650;23.386;2022-10-26T04:07:53;12.03;;;6.23;;
18789;SDS011;9523;42.650;23.386;2022-10-26T04:10:21;9.70;;;6.23;;
18789;SDS011;9523;42.650;23.386;2022-10-26T04:12:50;14.77;;;6.57;;
18789;SDS011;9523;42.650;23.386;2022-10-26T04:15:18;15.43;;;6.33;;
18789;SDS011;9523;42.650;23.386;2022-10-26T04:17:45;15.60;;;7.60;;
18789;SDS011;9523;42.650;23.386;2022-10-26T04:20:12;12.63;;;6.63;;
18789;SDS011;9523;42.650;23.386;2022-10-26T04:22:39;13.33;;;6.57;;
18789;SDS011;9523;42.650;23.386;2022-10-26T04:25:06;13.63;;;6.60;;
18789;SDS011;9523;42.650;23.386;2022-10-26T04:27:34;8.93;;;5.40;;
18789;SDS011;9523;42.650;23.386;2022-10-26T04:30:03;11.10;;;5.90;;
18789;SDS011;9523;42.650;23.386;2022-10-26T04:32:33;14.63;;;5.37;;
18789;SDS011;9523;42.650;23.386;2022-10-26T04:35:00;10.23;;;5.67;;
18789;SDS011;9523;42.650;23.386;2022-10-26T04:37:27;9.73;;;5.93;;
18789;SDS011;9523;42.650;23.386;2022-10-26T04:39:54;17.03;;;7.37;;
18789;SDS011;9523;42.650;23.386;2022-10-26T04:42:21;14.53;;;5.60;;
18789;SDS011;9523;42.650;23.386;2022-10-26T04:44:47;14.03;;;6.37;;
18789;SDS011;9523;42.650;23.386;2022-10-26T04:47:16;13.80;;;6.53;;
18789;SDS011;9523;42.650;23.386;2022-10-26T04:49:42;15.53;;;5.80;;
18789;SDS011;9523;42.650;23.386;2022-10-26T04:52:09;12.33;;;6.27;;
18789;SDS011;9523;42.650;23.386;2022-10-26T04:54:36;10.23;;;5.80;;
18789;SDS011;9523;42.650;23.386;2022-10-26T04:57:03;14.00;;;6.13;;
18789;SDS011;9523;42.650;23.386;2022-10-26T04:59:29;13.50;;;5.97;;
18789;SDS011;9523;42.650;23.386;2022-10-26T05:01:56;12.17;;;5.37;;
18789;SDS011;9523;42.650;23.386;2022-10-26T05:04:24;14.50;;;5.93;;
18789;SDS011;9523;42.650;23.386;2022-10-26T05:06:51;11.57;;;6.07;;
18789;SDS011;9523;42.650;23.386;2022-10-26T05:09:18;10.57;;;5.40;;
18789;SDS011;9523;42.650;23.386;2022-10-26T05:11:45;11.57;;;5.30;;
18789;SDS011;9523;42.650;23.386;2022-10-26T05:14:12;11.03;;;6.50;;
18789;SDS011;9523;42.650;23.386;2022-10-26T05:16:39;10.17;;;5.53;;
18789;SDS011;9523;42.650;23.386;2022-10-26T05:19:05;18.57;;;6.27;;
18789;SDS011;9523;42.650;23.386;2022-10-26T05:21:34;9.67;;;5.70;;
18789;SDS011;9523;42.650;23.386;2022-10-26T05:24:00;16.90;;;6.60;;
18789;SDS011;9523;42.650;23.386;2022-10-26T05:26:27;13.20;;;5.87;;
18789;SDS011;9523;42.650;23.386;2022-10-26T05:28:55;17.80;;;6.47;;
18789;SDS011;9523;42.650;23.386;2022-10-26T05:31:21;12.37;;;6.73;;
18789;SDS011;9523;42.650;23.386;2022-10-26T05:33:48;12.20;;;6.33;;
18789;SDS011;9523;42.650;23.386;2022-10-26T05:36:15;13.97;;;6.37;;
18789;SDS011;9523;42.650;23.386;2022-10-26T05:38:44;12.93;;;6.77;;
18789;SDS011;9523;42.650;23.386;2022-10-26T05:41:11;20.10;;;6.67;;
18789;SDS011;9523;42.650;23.386;2022-10-26T05:43:38;12.50;;;6.93;;
18789;SDS011;9523;42.650;23.386;2022-10-26T05:46:04;14.23;;;7.30;;
18789;SDS011;9523;42.650;23.386;2022-10-26T05:48:31;14.90;;;6.70;;
18789;SDS011;9523;42.650;23.386;2022-10-26T05:50:59;17.33;;;7.13;;
18789;SDS011;9523;42.650;23.386;2022-10-26T05:53:26;11.93;;;6.00;;
18789;SDS011;9523;42.650;23.386;2022-10-26T05:55:55;12.57;;;6.13;;
18789;SDS011;9523;42.650;23.386;2022-10-26T05:58:23;13.07;;;6.83;;
18789;SDS011;9523;42.650;23.386;2022-10-26T06:00:54;19.17;;;7.17;;
18789;SDS011;9523;42.650;23.386;2022-10-26T06:03:34;12.00;;;5.67;;
18789;SDS011;9523;42.650;23.386;2022-10-26T06:06:11;14.57;;;5.80;;
18789;SDS011;9523;42.650;23.386;2022-10-26T06:08:38;11.67;;;6.70;;
18789;SDS011;9523;42.650;23.386;2022-10-26T06:11:09;12.03;;;6.40;;
18789;SDS011;9523;42.650;23.386;2022-10-26T06:13:36;12.53;;;6.37;;
18789;SDS011;9523;42.650;23.386;2022-10-26T06:16:09;13.87;;;5.73;;
18789;SDS011;9523;42.650;23.386;2022-10-26T06:18:51;16.67;;;6.27;;
18789;SDS011;9523;42.650;23.386;2022-10-26T06:21:28;14.23;;;6.83;;
18789;SDS011;9523;42.650;23.386;2022-10-26T06:24:07;12.63;;;6.03;;
18789;SDS011;9523;42.650;23.386;2022-10-26T06:26:41;12.90;;;5.93;;
18789;SDS011;9523;42.650;23.386;2022-10-26T06:29:21;11.10;;;5.40;;
18789;SDS011;9523;42.650;23.386;2022-10-26T06:31:57;12.23;;;6.13;;
18789;SDS011;9523;42.650;23.386;2022-10-26T06:34:25;13.07;;;7.80;;
18789;SDS011;9523;42.650;23.386;2022-10-26T06:36:55;11.57;;;6.63;;
18789;SDS011;9523;42.650;23.386;2022-10-26T06:39:23;16.97;;;7.17;;
18789;SDS011;9523;42.650;23.386;2022-10-26T06:41:54;18.67;;;7.43;;
18789;SDS011;9523;42.650;23.386;2022-10-26T06:44:22;12.80;;;6.83;;
18789;SDS011;9523;42.650;23.386;2022-10-26T06:46:52;13.33;;;7.13;;
18789;SDS011;9523;42.650;23.386;2022-10-26T06:49:26;12.67;;;7.50;;
18789;SDS011;9523;42.650;23.386;2022-10-26T06:51:57;14.83;;;7.77;;
18789;SDS011;9523;42.650;23.386;2022-10-26T06:54:27;16.90;;;6.63;;
18789;SDS011;9523;42.650;23.386;2022-10-26T06:57:06;16.60;;;8.00;;
18789;SDS011;9523;42.650;23.386;2022-10-26T06:59:36;18.00;;;8.80;;
18789;SDS011;9523;42.650;23.386;2022-10-26T07:02:08;22.47;;;8.73;;
18789;SDS011;9523;42.650;23.386;2022-10-26T07:04:35;12.17;;;7.27;;
18789;SDS011;9523;42.650;23.386;2022-10-26T07:07:02;16.30;;;10.47;;
18789;SDS011;9523;42.650;23.386;2022-10-26T07:09:29;15.53;;;8.63;;
18789;SDS011;9523;42.650;23.386;2022-10-26T07:11:55;17.93;;;8.90;;
18789;SDS011;9523;42.650;23.386;2022-10-26T07:14:24;18.73;;;8.80;;
18789;SDS011;9523;42.650;23.386;2022-10-26T07:16:50;17.87;;;8.67;;
18789;SDS011;9523;42.650;23.386;2022-10-26T07:19:18;27.37;;;17.80;;
18789;SDS011;9523;42.650;23.386;2022-10-26T07:21:45;13.27;;;9.03;;
18789;SDS011;9523;42.650;23.386;2022-10-26T07:24:12;18.63;;;11.23;;
18789;SDS011;9523;42.650;23.386;2022-10-26T07:26:39;18.00;;;10.43;;
18789;SDS011;9523;42.650;23.386;2022-10-26T07:29:06;16.83;;;10.00;;
18789;SDS011;9523;42.650;23.386;2022-10-26T07:31:34;19.27;;;9.27;;
18789;SDS011;9523;42.650;23.386;2022-10-26T07:34:01;16.40;;;8.73;;
18789;SDS011;9523;42.650;23.386;2022-10-26T07:36:28;21.27;;;9.60;;
18789;SDS011;9523;42.650;23.386;2022-10-26T07:38:55;16.70;;;9.93;;
18789;SDS011;9523;42.650;23.386;2022-10-26T07:41:21;20.67;;;9.70;;
18789;SDS011;9523;42.650;23.386;2022-10-26T07:43:48;12.87;;;8.93;;
18789;SDS011;9523;42.650;23.386;2022-10-26T07:46:15;15.30;;;9.07;;
18789;SDS011;9523;42.650;23.386;2022-10-26T07:48:44;19.00;;;8.83;;
18789;SDS011;9523;42.650;23.386;2022-10-26T07:51:10;14.50;;;8.40;;
18789;SDS011;9523;42.650;23.386;2022-10-26T07:53:37;19.07;;;10.43;;
18789;SDS011;9523;42.650;23.386;2022-10-26T07:56:05;16.00;;;7.87;;
18789;SDS011;9523;42.650;23.386;2022-10-26T07:58:32;17.53;;;9.87;;
18789;SDS011;9523;42.650;23.386;2022-10-26T08:01:04;12.97;;;7.00;;
18789;SDS011;9523;42.650;23.386;2022-10-26T08:03:31;15.73;;;6.77;;
18789;SDS011;9523;42.650;23.386;2022-10-26T08:06:00;7.87;;;4.57;;
18789;SDS011;9523;42.650;23.386;2022-10-26T08:08:28;8.93;;;4.50;;
18789;SDS011;9523;42.650;23.386;2022-10-26T08:10:55;5.30;;;3.60;;
18789;SDS011;9523;42.650;23.386;2022-10-26T08:13:22;7.45;;;3.95;;
18789;SDS011;9523;42.650;23.386;2022-10-26T08:15:49;8.18;;;3.70;;
18789;SDS011;9523;42.650;23.386;2022-10-26T08:18:21;6.22;;;3.53;;
18789;SDS011;9523;42.650;23.386;2022-10-26T08:20:48;7.93;;;3.25;;
18789;SDS011;9523;42.650;23.386;2022-10-26T08:23:16;4.43;;;2.90;;
18789;SDS011;9523;42.650;23.386;2022-10-26T08:25:43;9.35;;;4.85;;
18789;SDS011;9523;42.650;23.386;2022-10-26T08:28:09;9.63;;;5.05;;
18789;SDS011;9523;42.650;23.386;2022-10-26T08:30:36;6.15;;;3.35;;
18789;SDS011;9523;42.650;23.386;2022-10-26T08:33:03;8.38;;;3.53;;
18789;SDS011;9523;42.650;23.386;2022-10-26T08:35:31;6.65;;;3.35;;
18789;SDS011;9523;42.650;23.386;2022-10-26T08:37:59;5.60;;;3.45;;
18789;SDS011;9523;42.650;23.386;2022-10-26T08:40:29;5.57;;;3.70;;
18789;SDS011;9523;42.650;23.386;2022-10-26T08:42:57;6.35;;;3.25;;
18789;SDS011;9523;42.650;23.386;2022-10-26T08:45:28;4.43;;;2.92;;
18789;SDS011;9523;42.650;23.386;2022-10-26T08:47:59;6.63;;;3.20;;
18789;SDS011;9523;42.650;23.386;2022-10-26T08:50:30;5.78;;;3.50;;
18789;SDS011;9523;42.650;23.386;2022-10-26T08:53:00;5.85;;;3.53;;
18789;SDS011;9523;42.650;23.386;2022-10-26T08:55:37;6.00;;;4.10;;
18789;SDS011;9523;42.650;23.386;2022-10-26T08:58:11;8.25;;;4.00;;
18789;SDS011;9523;42.650;23.386;2022-10-26T09:00:41;9.13;;;3.67;;
18789;SDS011;9523;42.650;23.386;2022-10-26T09:03:11;5.78;;;3.28;;
18789;SDS011;9523;42.650;23.386;2022-10-26T09:05:46;5.97;;;2.72;;
18789;SDS011;9523;42.650;23.386;2022-10-26T09:08:23;7.65;;;2.80;;
18789;SDS011;9523;42.650;23.386;2022-10-26T09:11:00;8.18;;;3.30;;
18789;SDS011;9523;42.650;23.386;2022-10-26T09:13:39;6.88;;;3.90;;
18789;SDS011;9523;42.650;23.386;2022-10-26T09:16:20;5.90;;;3.10;;
18789;SDS011;9523;42.650;23.386;2022-10-26T09:18:56;5.25;;;3.47;;
18789;SDS011;9523;42.650;23.386;2022-10-26T09:21:38;5.55;;;2.92;;
18789;SDS011;9523;42.650;23.386;2022-10-26T09:24:11;4.50;;;2.63;;
18789;SDS011;9523;42.650;23.386;2022-10-26T09:26:44;2.92;;;2.20;;
18789;SDS011;9523;42.650;23.386;2022-10-26T09:29:19;4.97;;;2.30;;
18789;SDS011;9523;42.650;23.386;2022-10-26T09:31:51;3.83;;;2.45;;
18789;SDS011;9523;42.650;23.386;2022-10-26T09:34:26;4.78;;;2.80;;
18789;SDS011;9523;42.650;23.386;2022-10-26T09:36:57;3.53;;;2.63;;
18789;SDS011;9523;42.650;23.386;2022-10-26T09:39:37;7.30;;;2.78;;
18789;SDS011;9523;42.650;23.386;2022-10-26T09:42:14;4.78;;;3.20;;
18789;SDS011;9523;42.650;23.386;2022-10-26T09:44:46;5.57;;;3.10;;
18789;SDS011;9523;42.650;23.386;2022-10-26T09:47:23;6.70;;;3.10;;
18789;SDS011;9523;42.650;23.386;2022-10-26T09:49:57;5.10;;;2.47;;
18789;SDS011;9523;42.650;23.386;2022-10-26T09:52:29;9.20;;;5.15;;
18789;SDS011;9523;42.650;23.386;2022-10-26T09:54:56;6.40;;;2.92;;
18789;SDS011;9523;42.650;23.386;2022-10-26T09:57:24;4.25;;;2.80;;
18789;SDS011;9523;42.650;23.386;2022-10-26T09:59:51;4.85;;;2.50;;
18789;SDS011;9523;42.650;23.386;2022-10-26T10:02:32;50.25;;;37.60;;
18789;SDS011;9523;42.650;23.386;2022-10-26T10:07:50;5.70;;;2.60;;
18789;SDS011;9523;42.650;23.386;2022-10-26T10:10:17;7.47;;;3.13;;
18789;SDS011;9523;42.650;23.386;2022-10-26T10:12:50;5.03;;;3.08;;
18789;SDS011;9523;42.650;23.386;2022-10-26T10:15:18;5.25;;;3.00;;
18789;SDS011;9523;42.650;23.386;2022-10-26T10:17:47;5.25;;;1.90;;
18789;SDS011;9523;42.650;23.386;2022-10-26T10:20:18;5.40;;;2.40;;
18789;SDS011;9523;42.650;23.386;2022-10-26T10:22:54;5.57;;;2.22;;
18789;SDS011;9523;42.650;23.386;2022-10-26T10:25:22;4.00;;;2.00;;
18789;SDS011;9523;42.650;23.386;2022-10-26T10:27:59;4.30;;;2.20;;
18789;SDS011;9523;42.650;23.386;2022-10-26T10:30:27;3.63;;;2.30;;
18789;SDS011;9523;42.650;23.386;2022-10-26T10:33:02;3.15;;;1.92;;
18789;SDS011;9523;42.650;23.386;2022-10-26T10:35:31;3.97;;;1.77;;
18789;SDS011;9523;42.650;23.386;2022-10-26T10:37:58;4.32;;;1.77;;
18789;SDS011;9523;42.650;23.386;2022-10-26T10:40:25;3.63;;;1.65;;
18789;SDS011;9523;42.650;23.386;2022-10-26T10:43:03;5.55;;;2.15;;
18789;SDS011;9523;42.650;23.386;2022-10-26T10:45:32;4.90;;;1.92;;
18789;SDS011;9523;42.650;23.386;2022-10-26T10:48:02;3.45;;;1.73;;
18789;SDS011;9523;42.650;23.386;2022-10-26T10:50:30;1.83;;;1.60;;
18789;SDS011;9523;42.650;23.386;2022-10-26T10:53:13;3.42;;;2.03;;
18789;SDS011;9523;42.650;23.386;2022-10-26T10:55:45;3.42;;;2.03;;
18789;SDS011;9523;42.650;23.386;2022-10-26T10:58:34;5.47;;;1.75;;
18789;SDS011;9523;42.650;23.386;2022-10-26T11:01:11;3.08;;;1.90;;
18789;SDS011;9523;42.650;23.386;2022-10-26T11:03:44;2.65;;;1.60;;
18789;SDS011;9523;42.650;23.386;2022-10-26T11:06:20;4.95;;;1.80;;
18789;SDS011;9523;42.650;23.386;2022-10-26T11:08:50;3.47;;;2.00;;
18789;SDS011;9523;42.650;23.386;2022-10-26T11:11:26;4.50;;;2.72;;
18789;SDS011;9523;42.650;23.386;2022-10-26T11:14:02;3.05;;;1.65;;
18789;SDS011;9523;42.650;23.386;2022-10-26T11:16:32;3.55;;;1.90;;
18789;SDS011;9523;42.650;23.386;2022-10-26T11:19:03;3.78;;;2.22;;
18789;SDS011;9523;42.650;23.386;2022-10-26T11:21:38;3.38;;;1.70;;
18789;SDS011;9523;42.650;23.386;2022-10-26T11:24:09;3.05;;;1.70;;
18789;SDS011;9523;42.650;23.386;2022-10-26T11:26:42;5.88;;;1.83;;
18789;SDS011;9523;42.650;23.386;2022-10-26T11:29:20;4.32;;;2.00;;
18789;SDS011;9523;42.650;23.386;2022-10-26T11:31:52;5.32;;;1.85;;
18789;SDS011;9523;42.650;23.386;2022-10-26T11:34:26;5.95;;;2.08;;
18789;SDS011;9523;42.650;23.386;2022-10-26T11:37:01;3.20;;;1.77;;
18789;SDS011;9523;42.650;23.386;2022-10-26T11:39:37;4.63;;;1.58;;
18789;SDS011;9523;42.650;23.386;2022-10-26T11:42:17;4.10;;;2.13;;
18789;SDS011;9523;42.650;23.386;2022-10-26T11:44:52;2.60;;;1.70;;
18789;SDS011;9523;42.650;23.386;2022-10-26T11:47:27;4.15;;;2.10;;
18789;SDS011;9523;42.650;23.386;2022-10-26T11:50:05;4.00;;;2.30;;
18789;SDS011;9523;42.650;23.386;2022-10-26T11:52:39;4.75;;;2.15;;
18789;SDS011;9523;42.650;23.386;2022-10-26T11:55:13;4.05;;;1.98;;
18789;SDS011;9523;42.650;23.386;2022-10-26T11:57:40;3.35;;;1.77;;
18789;SDS011;9523;42.650;23.386;2022-10-26T12:00:13;6.22;;;1.98;;
18789;SDS011;9523;42.650;23.386;2022-10-26T12:02:42;5.22;;;1.60;;
18789;SDS011;9523;42.650;23.386;2022-10-26T12:05:18;3.60;;;1.80;;
18789;SDS011;9523;42.650;23.386;2022-10-26T12:07:48;3.00;;;1.30;;
18789;SDS011;9523;42.650;23.386;2022-10-26T12:10:22;2.40;;;1.35;;
18789;SDS011;9523;42.650;23.386;2022-10-26T12:12:53;3.33;;;1.83;;
18789;SDS011;9523;42.650;23.386;2022-10-26T12:15:29;1.85;;;1.27;;
18789;SDS011;9523;42.650;23.386;2022-10-26T12:18:04;3.65;;;1.25;;
18789;SDS011;9523;42.650;23.386;2022-10-26T12:23:27;1.50;;;0.93;;
18789;SDS011;9523;42.650;23.386;2022-10-26T12:31:58;1.60;;;1.10;;
18789;SDS011;9523;42.650;23.386;2022-10-26T12:37:29;1.02;;;0.90;;
18789;SDS011;9523;42.650;23.386;2022-10-26T12:52:31;1.55;;;1.00;;
18789;SDS011;9523;42.650;23.386;2022-10-26T12:55:26;1.92;;;1.00;;
18789;SDS011;9523;42.650;23.386;2022-10-26T13:01:14;3.35;;;2.45;;
18789;SDS011;9523;42.650;23.386;2022-10-26T13:07:15;1.30;;;1.20;;
18789;SDS011;9523;42.650;23.386;2022-10-26T13:09:48;1.98;;;0.90;;
18789;SDS011;9523;42.650;23.386;2022-10-26T13:12:25;2.58;;;0.90;;
18789;SDS011;9523;42.650;23.386;2022-10-26T13:14:56;1.63;;;0.80;;
18789;SDS011;9523;42.650;23.386;2022-10-26T13:17:27;0.70;;;0.70;;
18789;SDS011;9523;42.650;23.386;2022-10-26T13:19:56;1.10;;;0.80;;
18789;SDS011;9523;42.650;23.386;2022-10-26T13:22:25;2.75;;;1.98;;
18789;SDS011;9523;42.650;23.386;2022-10-26T13:24:56;3.97;;;1.45;;
18789;SDS011;9523;42.650;23.386;2022-10-26T13:33:15;0.65;;;0.65;;
18789;SDS011;9523;42.650;23.386;2022-10-26T13:35:49;1.83;;;1.15;;
18789;SDS011;9523;42.650;23.386;2022-10-26T13:38:20;1.75;;;1.10;;
18789;SDS011;9523;42.650;23.386;2022-10-26T13:40:50;1.60;;;1.20;;
18789;SDS011;9523;42.650;23.386;2022-10-26T13:43:25;1.58;;;1.23;;
18789;SDS011;9523;42.650;23.386;2022-10-26T13:45:54;2.13;;;1.30;;
18789;SDS011;9523;42.650;23.386;2022-10-26T13:48:26;1.40;;;1.20;;
18789;SDS011;9523;42.650;23.386;2022-10-26T13:51:01;3.10;;;1.40;;
18789;SDS011;9523;42.650;23.386;2022-10-26T13:53:36;4.15;;;1.13;;
18789;SDS011;9523;42.650;23.386;2022-10-26T13:56:07;2.85;;;1.00;;
18789;SDS011;9523;42.650;23.386;2022-10-26T13:58:42;3.30;;;1.75;;
18789;SDS011;9523;42.650;23.386;2022-10-26T14:01:15;1.70;;;1.00;;
18789;SDS011;9523;42.650;23.386;2022-10-26T14:03:45;2.10;;;1.23;;
18789;SDS011;9523;42.650;23.386;2022-10-26T14:06:14;1.45;;;1.20;;
18789;SDS011;9523;42.650;23.386;2022-10-26T14:08:46;2.50;;;1.08;;
18789;SDS011;9523;42.650;23.386;2022-10-26T14:11:18;2.80;;;1.20;;
18789;SDS011;9523;42.650;23.386;2022-10-26T14:13:47;1.60;;;0.98;;
18789;SDS011;9523;42.650;23.386;2022-10-26T14:16:16;2.25;;;1.10;;
18789;SDS011;9523;42.650;23.386;2022-10-26T14:18:44;2.38;;;1.00;;
18789;SDS011;9523;42.650;23.386;2022-10-26T14:21:14;0.73;;;0.70;;
18789;SDS011;9523;42.650;23.386;2022-10-26T14:23:44;4.43;;;1.42;;
18789;SDS011;9523;42.650;23.386;2022-10-26T14:26:21;3.00;;;1.25;;
18789;SDS011;9523;42.650;23.386;2022-10-26T14:28:50;1.75;;;0.93;;
18789;SDS011;9523;42.650;23.386;2022-10-26T14:31:20;3.50;;;1.30;;
18789;SDS011;9523;42.650;23.386;2022-10-26T14:33:52;1.98;;;1.10;;
18789;SDS011;9523;42.650;23.386;2022-10-26T14:36:21;3.63;;;1.20;;
18789;SDS011;9523;42.650;23.386;2022-10-26T14:38:52;3.95;;;1.35;;
18789;SDS011;9523;42.650;23.386;2022-10-26T14:41:25;7.25;;;1.67;;
18789;SDS011;9523;42.650;23.386;2022-10-26T14:43:53;4.22;;;1.77;;
18789;SDS011;9523;42.650;23.386;2022-10-26T14:46:22;2.28;;;1.40;;
18789;SDS011;9523;42.650;23.386;2022-10-26T14:48:50;2.05;;;1.35;;
18789;SDS011;9523;42.650;23.386;2022-10-26T14:51:24;3.22;;;1.52;;
18789;SDS011;9523;42.650;23.386;2022-10-26T14:53:53;2.30;;;1.17;;
18789;SDS011;9523;42.650;23.386;2022-10-26T14:56:23;1.95;;;1.27;;
18789;SDS011;9523;42.650;23.386;2022-10-26T14:58:54;3.85;;;1.52;;
18789;SDS011;9523;42.650;23.386;2022-10-26T15:01:31;1.48;;;1.08;;
18789;SDS011;9523;42.650;23.386;2022-10-26T15:04:00;3.10;;;1.25;;
18789;SDS011;9523;42.650;23.386;2022-10-26T15:06:29;2.88;;;1.25;;
18789;SDS011;9523;42.650;23.386;2022-10-26T15:09:05;1.48;;;1.30;;
18789;SDS011;9523;42.650;23.386;2022-10-26T15:11:53;3.58;;;2.40;;
18789;SDS011;9523;42.650;23.386;2022-10-26T15:14:20;2.30;;;1.27;;
18789;SDS011;9523;42.650;23.386;2022-10-26T15:16:49;4.22;;;1.45;;
18789;SDS011;9523;42.650;23.386;2022-10-26T15:19:19;1.95;;;1.17;;
18789;SDS011;9523;42.650;23.386;2022-10-26T15:21:48;4.97;;;2.50;;
18789;SDS011;9523;42.650;23.386;2022-10-26T15:24:28;6.97;;;2.30;;
18789;SDS011;9523;42.650;23.386;2022-10-26T15:26:59;11.50;;;2.65;;
18789;SDS011;9523;42.650;23.386;2022-10-26T15:29:33;4.43;;;2.92;;
18789;SDS011;9523;42.650;23.386;2022-10-26T15:32:01;5.90;;;2.13;;
18789;SDS011;9523;42.650;23.386;2022-10-26T15:34:29;8.33;;;2.60;;
18789;SDS011;9523;42.650;23.386;2022-10-26T15:36:55;7.53;;;1.90;;
18789;SDS011;9523;42.650;23.386;2022-10-26T15:39:24;5.63;;;2.42;;
18789;SDS011;9523;42.650;23.386;2022-10-26T15:41:51;6.87;;;2.87;;
18789;SDS011;9523;42.650;23.386;2022-10-26T15:44:20;2.60;;;2.07;;
18789;SDS011;9523;42.650;23.386;2022-10-26T15:46:48;4.53;;;2.20;;